sensor_id;sensor_type;location;lat;lon;timestamp;temperature;humidity
61912;DHT22;49973;52.084;5.412;2023-03-01T00:01:48;-2.30;99.90
61912;DHT22;49973;52.084;5.412;2023-03-01T00:04:17;-2.30;99.90
61912;DHT22;49973;52.084;5.412;2023-03-01T00:06:46;-2.30;99.90
61912;DHT22;49973;52.084;5.412;2023-03-01T00:09:15;-2.30;99.90
61912;DHT22;49973;52.084;5.412;2023-03-01T00:11:45;-2.30;99.90
61912;DHT22;49973;52.084;5.412;2023-03-01T00:14:14;-2.30;99.90
61912;DHT22;49973;52.084;5.412;2023-03-01T00:16:46;-2.40;99.90
61912;DHT22;49973;52.084;5.412;2023-03-01T00:19:16;-2.40;99.90
61912;DHT22;49973;52.084;5.412;2023-03-01T00:21:45;-2.40;99.90
61912;DHT22;49973;52.084;5.412;2023-03-01T00:24:14;-2.40;99.90
61912;DHT22;49973;52.084;5.412;2023-03-01T00:26:44;-2.40;99.90
61912;DHT22;49973;52.084;5.412;2023-03-01T00:29:13;-2.40;99.90
61912;DHT22;49973;52.084;5.412;2023-03-01T00:31:42;-2.40;99.90
61912;DHT22;49973;52.084;5.412;2023-03-01T00:34:12;-2.40;99.90
61912;DHT22;49973;52.084;5.412;2023-03-01T00:36:41;-2.50;99.90
61912;DHT22;49973;52.084;5.412;2023-03-01T00:39:12;-2.40;99.90
61912;DHT22;49973;52.084;5.412;2023-03-01T00:41:42;-2.50;99.90
61912;DHT22;49973;52.084;5.412;2023-03-01T00:44:11;-2.50;99.90
61912;DHT22;49973;52.084;5.412;2023-03-01T00:46:40;-2.50;99.90
61912;DHT22;49973;52.084;5.412;2023-03-01T00:49:09;-2.50;99.90
61912;DHT22;49973;52.084;5.412;2023-03-01T00:51:39;-2.60;99.90
61912;DHT22;49973;52.084;5.412;2023-03-01T00:54:09;-2.60;99.90
61912;DHT22;49973;52.084;5.412;2023-03-01T00:56:38;-2.60;99.90
61912;DHT22;49973;52.084;5.412;2023-03-01T00:59:06;-2.60;99.90
61912;DHT22;49973;52.084;5.412;2023-03-01T01:01:35;-2.60;99.90
61912;DHT22;49973;52.084;5.412;2023-03-01T01:04:06;-2.60;99.90
61912;DHT22;49973;52.084;5.412;2023-03-01T01:06:40;-2.60;99.90
61912;DHT22;49973;52.084;5.412;2023-03-01T01:09:12;-2.70;99.90
61912;DHT22;49973;52.084;5.412;2023-03-01T01:11:44;-2.60;99.90
61912;DHT22;49973;52.084;5.412;2023-03-01T01:14:14;-2.70;99.90
61912;DHT22;49973;52.084;5.412;2023-03-01T01:16:43;-2.70;99.90
61912;DHT22;49973;52.084;5.412;2023-03-01T01:19:11;-2.70;99.90
61912;DHT22;49973;52.084;5.412;2023-03-01T01:21:42;-2.70;99.90
61912;DHT22;49973;52.084;5.412;2023-03-01T01:24:12;-2.70;99.90
61912;DHT22;49973;52.084;5.412;2023-03-01T01:26:41;-2.80;99.90
61912;DHT22;49973;52.084;5.412;2023-03-01T01:29:11;-2.80;99.90
61912;DHT22;49973;52.084;5.412;2023-03-01T01:31:41;-2.80;99.90
61912;DHT22;49973;52.084;5.412;2023-03-01T01:34:14;-2.80;99.90
61912;DHT22;49973;52.084;5.412;2023-03-01T01:36:47;-2.70;99.90
61912;DHT22;49973;52.084;5.412;2023-03-01T01:39:17;-2.70;99.90
61912;DHT22;49973;52.084;5.412;2023-03-01T01:41:45;-2.70;99.90
61912;DHT22;49973;52.084;5.412;2023-03-01T01:44:17;-2.70;99.90
61912;DHT22;49973;52.084;5.412;2023-03-01T01:46:49;-2.80;99.90
61912;DHT22;49973;52.084;5.412;2023-03-01T01:49:24;-2.80;99.90
61912;DHT22;49973;52.084;5.412;2023-03-01T01:51:59;-2.80;99.90
61912;DHT22;49973;52.084;5.412;2023-03-01T01:54:34;-2.80;99.90
61912;DHT22;49973;52.084;5.412;2023-03-01T01:57:09;-2.80;99.90
61912;DHT22;49973;52.084;5.412;2023-03-01T01:59:39;-2.80;99.90
61912;DHT22;49973;52.084;5.412;2023-03-01T02:02:12;-2.80;99.90
61912;DHT22;49973;52.084;5.412;2023-03-01T02:04:41;-2.80;99.90
61912;DHT22;49973;52.084;5.412;2023-03-01T02:07:15;-2.80;99.90
61912;DHT22;49973;52.084;5.412;2023-03-01T02:09:47;-2.90;99.90
61912;DHT22;49973;52.084;5.412;2023-03-01T02:12:18;-2.90;99.90
61912;DHT22;49973;52.084;5.412;2023-03-01T02:14:48;-2.80;99.90
61912;DHT22;49973;52.084;5.412;2023-03-01T02:17:17;-2.90;99.90
61912;DHT22;49973;52.084;5.412;2023-03-01T02:19:57;-2.90;99.90
61912;DHT22;49973;52.084;5.412;2023-03-01T02:22:31;-2.90;99.90
61912;DHT22;49973;52.084;5.412;2023-03-01T02:25:11;-3.00;99.90
61912;DHT22;49973;52.084;5.412;2023-03-01T02:27:48;-3.00;99.90
61912;DHT22;49973;52.084;5.412;2023-03-01T02:30:24;-3.00;99.90
61912;DHT22;49973;52.084;5.412;2023-03-01T02:32:56;-3.00;99.90
61912;DHT22;49973;52.084;5.412;2023-03-01T02:35:31;-3.00;99.90
61912;DHT22;49973;52.084;5.412;2023-03-01T02:38:02;-3.00;99.90
61912;DHT22;49973;52.084;5.412;2023-03-01T02:40:33;-3.00;99.90
61912;DHT22;49973;52.084;5.412;2023-03-01T02:43:05;-3.10;99.90
61912;DHT22;49973;52.084;5.412;2023-03-01T02:45:38;-3.10;99.90
61912;DHT22;49973;52.084;5.412;2023-03-01T02:48:11;-3.10;99.90
61912;DHT22;49973;52.084;5.412;2023-03-01T02:50:51;-3.10;99.90
61912;DHT22;49973;52.084;5.412;2023-03-01T02:53:23;-3.10;99.90
61912;DHT22;49973;52.084;5.412;2023-03-01T02:55:56;-3.10;99.90
61912;DHT22;49973;52.084;5.412;2023-03-01T02:58:26;-3.10;99.90
61912;DHT22;49973;52.084;5.412;2023-03-01T03:00:57;-3.10;99.90
61912;DHT22;49973;52.084;5.412;2023-03-01T03:03:28;-3.10;99.90
61912;DHT22;49973;52.084;5.412;2023-03-01T03:05:57;-3.10;99.90
61912;DHT22;49973;52.084;5.412;2023-03-01T03:08:26;-3.10;99.90
61912;DHT22;49973;52.084;5.412;2023-03-01T03:10:55;-3.10;99.90
61912;DHT22;49973;52.084;5.412;2023-03-01T03:13:24;-3.10;99.90
61912;DHT22;49973;52.084;5.412;2023-03-01T03:15:57;-3.00;99.90
61912;DHT22;49973;52.084;5.412;2023-03-01T03:18:26;-3.00;99.90
61912;DHT22;49973;52.084;5.412;2023-03-01T03:20:55;-3.00;99.90
61912;DHT22;49973;52.084;5.412;2023-03-01T03:23:24;-3.00;99.90
61912;DHT22;49973;52.084;5.412;2023-03-01T03:25:53;-3.10;99.90
61912;DHT22;49973;52.084;5.412;2023-03-01T03:28:21;-3.10;99.90
61912;DHT22;49973;52.084;5.412;2023-03-01T03:30:50;-3.10;99.90
61912;DHT22;49973;52.084;5.412;2023-03-01T03:33:20;-3.10;99.90
61912;DHT22;49973;52.084;5.412;2023-03-01T03:35:50;-3.10;99.90
61912;DHT22;49973;52.084;5.412;2023-03-01T03:38:19;-3.10;99.90
61912;DHT22;49973;52.084;5.412;2023-03-01T03:40:50;-3.10;99.90
61912;DHT22;49973;52.084;5.412;2023-03-01T03:43:21;-3.10;99.90
61912;DHT22;49973;52.084;5.412;2023-03-01T03:45:51;-3.10;99.90
61912;DHT22;49973;52.084;5.412;2023-03-01T03:48:21;-3.20;99.90
61912;DHT22;49973;52.084;5.412;2023-03-01T03:50:51;-3.20;99.90
61912;DHT22;49973;52.084;5.412;2023-03-01T03:53:21;-3.20;99.90
61912;DHT22;49973;52.084;5.412;2023-03-01T03:55:50;-3.20;99.90
61912;DHT22;49973;52.084;5.412;2023-03-01T03:58:22;-3.30;99.90
61912;DHT22;49973;52.084;5.412;2023-03-01T04:00:53;-3.30;99.90
61912;DHT22;49973;52.084;5.412;2023-03-01T04:03:25;-3.30;99.90
61912;DHT22;49973;52.084;5.412;2023-03-01T04:05:57;-3.30;99.90
61912;DHT22;49973;52.084;5.412;2023-03-01T04:08:26;-3.30;99.90
61912;DHT22;49973;52.084;5.412;2023-03-01T04:10:59;-3.30;99.90
61912;DHT22;49973;52.084;5.412;2023-03-01T04:13:48;-3.40;99.90
61912;DHT22;49973;52.084;5.412;2023-03-01T04:16:17;-3.40;99.90
61912;DHT22;49973;52.084;5.412;2023-03-01T04:18:48;-3.40;99.90
61912;DHT22;49973;52.084;5.412;2023-03-01T04:21:16;-3.40;99.90
61912;DHT22;49973;52.084;5.412;2023-03-01T04:23:48;-3.40;99.90
61912;DHT22;49973;52.084;5.412;2023-03-01T04:26:19;-3.50;99.90
61912;DHT22;49973;52.084;5.412;2023-03-01T04:28:48;-3.50;99.90
61912;DHT22;49973;52.084;5.412;2023-03-01T04:31:18;-3.50;99.90
61912;DHT22;49973;52.084;5.412;2023-03-01T04:33:52;-3.60;99.90
61912;DHT22;49973;52.084;5.412;2023-03-01T04:36:23;-3.60;99.90
61912;DHT22;49973;52.084;5.412;2023-03-01T04:38:53;-3.60;99.90
61912;DHT22;49973;52.084;5.412;2023-03-01T04:41:24;-3.60;99.90
61912;DHT22;49973;52.084;5.412;2023-03-01T04:43:53;-3.60;99.90
61912;DHT22;49973;52.084;5.412;2023-03-01T04:46:21;-3.60;99.90
61912;DHT22;49973;52.084;5.412;2023-03-01T04:48:52;-3.60;99.90
61912;DHT22;49973;52.084;5.412;2023-03-01T04:51:20;-3.60;99.90
61912;DHT22;49973;52.084;5.412;2023-03-01T04:53:50;-3.70;99.90
61912;DHT22;49973;52.084;5.412;2023-03-01T04:56:19;-3.70;99.90
61912;DHT22;49973;52.084;5.412;2023-03-01T04:58:53;-3.70;99.90
61912;DHT22;49973;52.084;5.412;2023-03-01T05:01:22;-3.70;99.90
61912;DHT22;49973;52.084;5.412;2023-03-01T05:03:52;-3.70;99.90
61912;DHT22;49973;52.084;5.412;2023-03-01T05:06:21;-3.70;99.90
61912;DHT22;49973;52.084;5.412;2023-03-01T05:08:50;-3.70;99.90
61912;DHT22;49973;52.084;5.412;2023-03-01T05:11:19;-3.60;99.90
61912;DHT22;49973;52.084;5.412;2023-03-01T05:13:48;-3.70;99.90
61912;DHT22;49973;52.084;5.412;2023-03-01T05:16:17;-3.80;99.90
61912;DHT22;49973;52.084;5.412;2023-03-01T05:18:47;-3.80;99.90
61912;DHT22;49973;52.084;5.412;2023-03-01T05:21:19;-3.80;99.90
61912;DHT22;49973;52.084;5.412;2023-03-01T05:23:48;-3.80;99.90
61912;DHT22;49973;52.084;5.412;2023-03-01T05:26:18;-3.80;99.90
61912;DHT22;49973;52.084;5.412;2023-03-01T05:28:55;-3.90;99.90
61912;DHT22;49973;52.084;5.412;2023-03-01T05:31:27;-3.80;99.90
61912;DHT22;49973;52.084;5.412;2023-03-01T05:33:56;-3.90;99.90
61912;DHT22;49973;52.084;5.412;2023-03-01T05:36:26;-3.90;99.90
61912;DHT22;49973;52.084;5.412;2023-03-01T05:38:55;-3.90;99.90
61912;DHT22;49973;52.084;5.412;2023-03-01T05:41:24;-3.90;99.90
61912;DHT22;49973;52.084;5.412;2023-03-01T05:43:53;-3.90;99.90
61912;DHT22;49973;52.084;5.412;2023-03-01T05:46:21;-3.90;99.90
61912;DHT22;49973;52.084;5.412;2023-03-01T05:48:51;-3.90;99.90
61912;DHT22;49973;52.084;5.412;2023-03-01T05:51:20;-4.00;99.90
61912;DHT22;49973;52.084;5.412;2023-03-01T05:53:50;-3.90;99.90
61912;DHT22;49973;52.084;5.412;2023-03-01T05:56:19;-3.90;99.90
61912;DHT22;49973;52.084;5.412;2023-03-01T05:58:49;-4.00;99.90
61912;DHT22;49973;52.084;5.412;2023-03-01T06:01:18;-4.00;99.90
61912;DHT22;49973;52.084;5.412;2023-03-01T06:03:47;-4.00;99.90
61912;DHT22;49973;52.084;5.412;2023-03-01T06:06:15;-4.00;99.90
61912;DHT22;49973;52.084;5.412;2023-03-01T06:08:44;-4.00;99.90
61912;DHT22;49973;52.084;5.412;2023-03-01T06:11:15;-4.00;99.90
61912;DHT22;49973;52.084;5.412;2023-03-01T06:13:44;-4.10;99.90
61912;DHT22;49973;52.084;5.412;2023-03-01T06:16:14;-4.10;99.90
61912;DHT22;49973;52.084;5.412;2023-03-01T06:18:42;-4.10;99.90
61912;DHT22;49973;52.084;5.412;2023-03-01T06:21:11;-4.10;99.90
61912;DHT22;49973;52.084;5.412;2023-03-01T06:23:40;-4.10;99.90
61912;DHT22;49973;52.084;5.412;2023-03-01T06:26:09;-4.10;99.90
61912;DHT22;49973;52.084;5.412;2023-03-01T06:28:39;-4.10;99.90
61912;DHT22;49973;52.084;5.412;2023-03-01T06:31:08;-4.10;99.90
61912;DHT22;49973;52.084;5.412;2023-03-01T06:33:37;-4.10;99.90
61912;DHT22;49973;52.084;5.412;2023-03-01T06:36:07;-4.10;99.90
61912;DHT22;49973;52.084;5.412;2023-03-01T06:38:37;-4.10;99.90
61912;DHT22;49973;52.084;5.412;2023-03-01T06:41:08;-4.00;99.90
61912;DHT22;49973;52.084;5.412;2023-03-01T06:43:36;-4.10;99.90
61912;DHT22;49973;52.084;5.412;2023-03-01T06:46:08;-4.00;99.90
61912;DHT22;49973;52.084;5.412;2023-03-01T06:48:36;-4.00;99.90
61912;DHT22;49973;52.084;5.412;2023-03-01T06:51:05;-4.00;99.90
61912;DHT22;49973;52.084;5.412;2023-03-01T06:53:34;-4.00;99.90
61912;DHT22;49973;52.084;5.412;2023-03-01T06:56:04;-4.00;99.90
61912;DHT22;49973;52.084;5.412;2023-03-01T06:58:33;-4.00;99.90
61912;DHT22;49973;52.084;5.412;2023-03-01T07:01:07;-3.90;99.90
61912;DHT22;49973;52.084;5.412;2023-03-01T07:03:36;-3.80;99.90
61912;DHT22;49973;52.084;5.412;2023-03-01T07:06:05;-3.80;99.90
61912;DHT22;49973;52.084;5.412;2023-03-01T07:08:33;-3.80;99.90
61912;DHT22;49973;52.084;5.412;2023-03-01T07:11:02;-3.80;99.90
61912;DHT22;49973;52.084;5.412;2023-03-01T07:13:31;-3.70;99.90
61912;DHT22;49973;52.084;5.412;2023-03-01T07:16:00;-3.70;99.90
61912;DHT22;49973;52.084;5.412;2023-03-01T07:18:30;-3.60;99.90
61912;DHT22;49973;52.084;5.412;2023-03-01T07:21:04;-3.50;99.90
61912;DHT22;49973;52.084;5.412;2023-03-01T07:23:32;-3.40;99.90
61912;DHT22;49973;52.084;5.412;2023-03-01T07:26:01;-3.20;99.90
61912;DHT22;49973;52.084;5.412;2023-03-01T07:28:30;-2.90;99.90
61912;DHT22;49973;52.084;5.412;2023-03-01T07:31:03;-2.50;99.90
61912;DHT22;49973;52.084;5.412;2023-03-01T07:33:34;-1.80;99.90
61912;DHT22;49973;52.084;5.412;2023-03-01T07:36:04;-1.20;99.90
61912;DHT22;49973;52.084;5.412;2023-03-01T07:38:33;-0.60;99.90
61912;DHT22;49973;52.084;5.412;2023-03-01T07:41:03;0.00;99.90
61912;DHT22;49973;52.084;5.412;2023-03-01T07:43:32;0.60;99.90
61912;DHT22;49973;52.084;5.412;2023-03-01T07:46:02;1.10;99.90
61912;DHT22;49973;52.084;5.412;2023-03-01T07:48:34;1.60;99.90
61912;DHT22;49973;52.084;5.412;2023-03-01T07:51:04;1.90;99.90
61912;DHT22;49973;52.084;5.412;2023-03-01T07:53:33;2.30;99.90
61912;DHT22;49973;52.084;5.412;2023-03-01T07:56:03;2.80;99.90
61912;DHT22;49973;52.084;5.412;2023-03-01T07:58:34;3.10;99.90
61912;DHT22;49973;52.084;5.412;2023-03-01T08:01:03;3.60;99.90
61912;DHT22;49973;52.084;5.412;2023-03-01T08:03:34;4.10;99.90
61912;DHT22;49973;52.084;5.412;2023-03-01T08:06:05;4.70;99.90
61912;DHT22;49973;52.084;5.412;2023-03-01T08:08:35;5.30;99.90
61912;DHT22;49973;52.084;5.412;2023-03-01T08:11:05;5.80;99.90
61912;DHT22;49973;52.084;5.412;2023-03-01T08:13:34;6.30;99.90
61912;DHT22;49973;52.084;5.412;2023-03-01T08:16:05;6.70;99.90
61912;DHT22;49973;52.084;5.412;2023-03-01T08:18:35;7.00;99.90
61912;DHT22;49973;52.084;5.412;2023-03-01T08:21:04;7.00;99.90
61912;DHT22;49973;52.084;5.412;2023-03-01T08:23:34;6.90;99.90
61912;DHT22;49973;52.084;5.412;2023-03-01T08:26:04;6.50;99.90
61912;DHT22;49973;52.084;5.412;2023-03-01T08:28:34;6.00;99.90
61912;DHT22;49973;52.084;5.412;2023-03-01T08:31:04;5.50;99.90
61912;DHT22;49973;52.084;5.412;2023-03-01T08:33:43;5.00;99.90
61912;DHT22;49973;52.084;5.412;2023-03-01T08:36:11;4.50;99.90
61912;DHT22;49973;52.084;5.412;2023-03-01T08:38:40;4.10;99.90
61912;DHT22;49973;52.084;5.412;2023-03-01T08:41:09;3.70;99.90
61912;DHT22;49973;52.084;5.412;2023-03-01T08:43:38;3.40;99.90
61912;DHT22;49973;52.084;5.412;2023-03-01T08:46:06;3.00;99.90
61912;DHT22;49973;52.084;5.412;2023-03-01T08:48:35;2.80;99.90
61912;DHT22;49973;52.084;5.412;2023-03-01T08:51:10;2.60;99.90
61912;DHT22;49973;52.084;5.412;2023-03-01T08:53:40;2.30;99.90
61912;DHT22;49973;52.084;5.412;2023-03-01T08:56:09;2.20;99.90
61912;DHT22;49973;52.084;5.412;2023-03-01T08:58:38;2.10;99.90
61912;DHT22;49973;52.084;5.412;2023-03-01T09:01:08;2.00;99.90
61912;DHT22;49973;52.084;5.412;2023-03-01T09:03:37;1.90;99.90
61912;DHT22;49973;52.084;5.412;2023-03-01T09:06:07;1.80;99.90
61912;DHT22;49973;52.084;5.412;2023-03-01T09:08:38;1.80;99.90
61912;DHT22;49973;52.084;5.412;2023-03-01T09:11:09;1.80;99.90
61912;DHT22;49973;52.084;5.412;2023-03-01T09:13:37;1.70;99.90
61912;DHT22;49973;52.084;5.412;2023-03-01T09:16:12;1.80;99.90
61912;DHT22;49973;52.084;5.412;2023-03-01T09:18:41;1.80;99.90
61912;DHT22;49973;52.084;5.412;2023-03-01T09:21:12;1.80;99.90
61912;DHT22;49973;52.084;5.412;2023-03-01T09:23:44;1.90;99.90
61912;DHT22;49973;52.084;5.412;2023-03-01T09:26:15;2.00;99.90
61912;DHT22;49973;52.084;5.412;2023-03-01T09:28:44;2.00;99.90
61912;DHT22;49973;52.084;5.412;2023-03-01T09:31:14;2.10;99.90
61912;DHT22;49973;52.084;5.412;2023-03-01T09:33:45;2.20;99.90
61912;DHT22;49973;52.084;5.412;2023-03-01T09:36:17;2.30;99.90
61912;DHT22;49973;52.084;5.412;2023-03-01T09:38:48;2.40;99.90
61912;DHT22;49973;52.084;5.412;2023-03-01T09:41:35;2.60;99.90
61912;DHT22;49973;52.084;5.412;2023-03-01T09:44:11;2.70;99.90
61912;DHT22;49973;52.084;5.412;2023-03-01T09:46:44;2.80;99.90
61912;DHT22;49973;52.084;5.412;2023-03-01T09:49:16;2.80;99.90
61912;DHT22;49973;52.084;5.412;2023-03-01T09:51:55;2.90;99.90
61912;DHT22;49973;52.084;5.412;2023-03-01T09:54:26;3.10;99.90
61912;DHT22;49973;52.084;5.412;2023-03-01T09:57:07;3.20;99.90
61912;DHT22;49973;52.084;5.412;2023-03-01T09:59:49;3.30;99.90
61912;DHT22;49973;52.084;5.412;2023-03-01T10:02:39;3.30;99.90
61912;DHT22;49973;52.084;5.412;2023-03-01T10:05:27;3.40;99.90
61912;DHT22;49973;52.084;5.412;2023-03-01T10:08:13;3.50;99.90
61912;DHT22;49973;52.084;5.412;2023-03-01T10:10:46;3.60;99.90
61912;DHT22;49973;52.084;5.412;2023-03-01T10:13:18;3.60;99.90
61912;DHT22;49973;52.084;5.412;2023-03-01T10:15:50;3.60;99.90
61912;DHT22;49973;52.084;5.412;2023-03-01T10:18:24;3.70;99.90
61912;DHT22;49973;52.084;5.412;2023-03-01T10:20:57;3.80;99.90
61912;DHT22;49973;52.084;5.412;2023-03-01T10:23:32;3.80;99.90
61912;DHT22;49973;52.084;5.412;2023-03-01T10:26:22;3.90;99.90
61912;DHT22;49973;52.084;5.412;2023-03-01T10:29:01;4.00;99.90
61912;DHT22;49973;52.084;5.412;2023-03-01T10:31:37;4.00;99.90
61912;DHT22;49973;52.084;5.412;2023-03-01T10:34:14;4.10;99.90
61912;DHT22;49973;52.084;5.412;2023-03-01T10:36:48;4.30;99.90
61912;DHT22;49973;52.084;5.412;2023-03-01T10:39:19;4.20;99.90
61912;DHT22;49973;52.084;5.412;2023-03-01T10:41:59;4.30;99.90
61912;DHT22;49973;52.084;5.412;2023-03-01T10:44:37;4.40;99.90
61912;DHT22;49973;52.084;5.412;2023-03-01T10:47:14;4.40;99.90
61912;DHT22;49973;52.084;5.412;2023-03-01T10:49:54;4.50;99.90
61912;DHT22;49973;52.084;5.412;2023-03-01T10:52:26;4.60;99.90
61912;DHT22;49973;52.084;5.412;2023-03-01T10:54:57;4.70;99.90
61912;DHT22;49973;52.084;5.412;2023-03-01T10:57:37;4.80;99.90
61912;DHT22;49973;52.084;5.412;2023-03-01T11:00:24;4.80;99.90
61912;DHT22;49973;52.084;5.412;2023-03-01T11:03:12;4.80;99.90
61912;DHT22;49973;52.084;5.412;2023-03-01T11:05:57;4.90;99.90
61912;DHT22;49973;52.084;5.412;2023-03-01T11:08:31;5.00;99.90
61912;DHT22;49973;52.084;5.412;2023-03-01T11:11:06;5.00;99.90
61912;DHT22;49973;52.084;5.412;2023-03-01T11:13:37;5.10;99.90
61912;DHT22;49973;52.084;5.412;2023-03-01T11:16:11;5.10;99.90
61912;DHT22;49973;52.084;5.412;2023-03-01T11:18:40;5.10;99.90
61912;DHT22;49973;52.084;5.412;2023-03-01T11:21:15;5.10;99.90
61912;DHT22;49973;52.084;5.412;2023-03-01T11:23:45;5.20;99.90
61912;DHT22;49973;52.084;5.412;2023-03-01T11:26:15;5.20;99.90
61912;DHT22;49973;52.084;5.412;2023-03-01T11:28:51;5.30;99.90
61912;DHT22;49973;52.084;5.412;2023-03-01T11:31:20;5.30;99.90
61912;DHT22;49973;52.084;5.412;2023-03-01T11:33:54;5.40;99.90
61912;DHT22;49973;52.084;5.412;2023-03-01T11:36:30;5.50;99.90
61912;DHT22;49973;52.084;5.412;2023-03-01T11:39:05;5.50;99.90
61912;DHT22;49973;52.084;5.412;2023-03-01T11:41:40;5.50;99.90
61912;DHT22;49973;52.084;5.412;2023-03-01T11:44:16;5.60;99.90
61912;DHT22;49973;52.084;5.412;2023-03-01T11:47:03;5.60;99.90
61912;DHT22;49973;52.084;5.412;2023-03-01T11:49:49;5.70;99.90
61912;DHT22;49973;52.084;5.412;2023-03-01T11:52:27;5.70;99.90
61912;DHT22;49973;52.084;5.412;2023-03-01T11:55:12;5.90;99.90
61912;DHT22;49973;52.084;5.412;2023-03-01T11:57:57;5.80;99.90
61912;DHT22;49973;52.084;5.412;2023-03-01T12:00:43;5.80;99.90
61912;DHT22;49973;52.084;5.412;2023-03-01T12:03:23;5.80;99.90
61912;DHT22;49973;52.084;5.412;2023-03-01T12:06:12;5.80;99.90
61912;DHT22;49973;52.084;5.412;2023-03-01T12:09:01;5.90;99.90
61912;DHT22;49973;52.084;5.412;2023-03-01T12:11:41;5.90;99.90
61912;DHT22;49973;52.084;5.412;2023-03-01T12:14:23;5.90;99.90
61912;DHT22;49973;52.084;5.412;2023-03-01T12:17:09;6.00;99.90
61912;DHT22;49973;52.084;5.412;2023-03-01T12:19:54;6.00;99.90
61912;DHT22;49973;52.084;5.412;2023-03-01T12:22:30;6.00;99.90
61912;DHT22;49973;52.084;5.412;2023-03-01T12:25:14;6.10;99.90
61912;DHT22;49973;52.084;5.412;2023-03-01T12:27:55;6.10;99.90
61912;DHT22;49973;52.084;5.412;2023-03-01T12:30:35;6.20;99.90
61912;DHT22;49973;52.084;5.412;2023-03-01T12:33:18;6.20;99.90
61912;DHT22;49973;52.084;5.412;2023-03-01T12:36:14;6.20;99.90
61912;DHT22;49973;52.084;5.412;2023-03-01T12:38:49;6.30;99.90
61912;DHT22;49973;52.084;5.412;2023-03-01T12:41:36;6.30;99.90
61912;DHT22;49973;52.084;5.412;2023-03-01T12:44:29;6.30;99.90
61912;DHT22;49973;52.084;5.412;2023-03-01T12:47:07;6.30;99.90
61912;DHT22;49973;52.084;5.412;2023-03-01T12:49:43;6.30;99.90
61912;DHT22;49973;52.084;5.412;2023-03-01T12:52:18;6.40;99.90
61912;DHT22;49973;52.084;5.412;2023-03-01T12:54:51;6.40;99.90
61912;DHT22;49973;52.084;5.412;2023-03-01T12:57:28;6.40;99.90
61912;DHT22;49973;52.084;5.412;2023-03-01T13:00:18;6.40;99.90
61912;DHT22;49973;52.084;5.412;2023-03-01T13:02:52;6.50;99.90
61912;DHT22;49973;52.084;5.412;2023-03-01T13:05:39;6.50;99.90
61912;DHT22;49973;52.084;5.412;2023-03-01T13:08:16;6.50;99.90
61912;DHT22;49973;52.084;5.412;2023-03-01T13:10:50;6.50;99.90
61912;DHT22;49973;52.084;5.412;2023-03-01T13:13:22;6.50;99.90
61912;DHT22;49973;52.084;5.412;2023-03-01T13:15:52;6.50;99.90
61912;DHT22;49973;52.084;5.412;2023-03-01T13:18:32;6.50;99.90
61912;DHT22;49973;52.084;5.412;2023-03-01T13:21:04;6.50;99.90
61912;DHT22;49973;52.084;5.412;2023-03-01T13:23:35;6.60;99.90
61912;DHT22;49973;52.084;5.412;2023-03-01T13:26:13;6.50;99.90
61912;DHT22;49973;52.084;5.412;2023-03-01T13:28:51;6.60;99.90
61912;DHT22;49973;52.084;5.412;2023-03-01T13:34:46;6.60;99.90
61912;DHT22;49973;52.084;5.412;2023-03-01T13:37:25;6.60;99.90
61912;DHT22;49973;52.084;5.412;2023-03-01T13:39:58;6.70;99.90
61912;DHT22;49973;52.084;5.412;2023-03-01T13:42:40;6.70;99.90
61912;DHT22;49973;52.084;5.412;2023-03-01T13:45:33;6.80;99.90
61912;DHT22;49973;52.084;5.412;2023-03-01T13:48:08;6.80;99.90
61912;DHT22;49973;52.084;5.412;2023-03-01T13:50:45;6.80;99.90
61912;DHT22;49973;52.084;5.412;2023-03-01T13:53:19;6.80;99.90
61912;DHT22;49973;52.084;5.412;2023-03-01T13:55:51;6.90;99.90
61912;DHT22;49973;52.084;5.412;2023-03-01T13:58:24;6.80;99.90
61912;DHT22;49973;52.084;5.412;2023-03-01T14:00:58;6.90;99.90
61912;DHT22;49973;52.084;5.412;2023-03-01T14:03:28;6.90;99.90
61912;DHT22;49973;52.084;5.412;2023-03-01T14:06:01;6.90;99.90
61912;DHT22;49973;52.084;5.412;2023-03-01T14:08:44;6.90;99.90
61912;DHT22;49973;52.084;5.412;2023-03-01T14:14:38;6.90;99.90
61912;DHT22;49973;52.084;5.412;2023-03-01T14:17:20;6.90;99.90
61912;DHT22;49973;52.084;5.412;2023-03-01T14:19:56;6.80;99.90
61912;DHT22;49973;52.084;5.412;2023-03-01T14:22:27;6.90;99.90
61912;DHT22;49973;52.084;5.412;2023-03-01T14:25:00;6.90;99.90
61912;DHT22;49973;52.084;5.412;2023-03-01T14:27:33;6.90;99.90
61912;DHT22;49973;52.084;5.412;2023-03-01T14:30:11;6.90;99.90
61912;DHT22;49973;52.084;5.412;2023-03-01T14:32:41;6.90;99.90
61912;DHT22;49973;52.084;5.412;2023-03-01T14:35:20;6.90;99.90
61912;DHT22;49973;52.084;5.412;2023-03-01T14:37:49;6.90;99.90
61912;DHT22;49973;52.084;5.412;2023-03-01T14:40:28;6.90;99.90
61912;DHT22;49973;52.084;5.412;2023-03-01T14:43:00;6.90;99.90
61912;DHT22;49973;52.084;5.412;2023-03-01T14:45:30;6.90;99.90
61912;DHT22;49973;52.084;5.412;2023-03-01T14:48:00;6.90;99.90
61912;DHT22;49973;52.084;5.412;2023-03-01T14:50:30;6.90;99.90
61912;DHT22;49973;52.084;5.412;2023-03-01T14:53:02;7.00;99.90
61912;DHT22;49973;52.084;5.412;2023-03-01T14:55:36;7.20;99.90
61912;DHT22;49973;52.084;5.412;2023-03-01T14:58:09;7.00;99.90
61912;DHT22;49973;52.084;5.412;2023-03-01T15:00:48;7.10;99.90
61912;DHT22;49973;52.084;5.412;2023-03-01T15:03:26;7.10;99.90
61912;DHT22;49973;52.084;5.412;2023-03-01T15:05:56;7.10;99.90
61912;DHT22;49973;52.084;5.412;2023-03-01T15:08:25;7.10;99.90
61912;DHT22;49973;52.084;5.412;2023-03-01T15:11:04;7.10;99.90
61912;DHT22;49973;52.084;5.412;2023-03-01T15:13:35;7.10;99.90
61912;DHT22;49973;52.084;5.412;2023-03-01T15:16:09;7.10;99.90
61912;DHT22;49973;52.084;5.412;2023-03-01T15:18:44;7.10;99.90
61912;DHT22;49973;52.084;5.412;2023-03-01T15:21:17;7.00;99.90
61912;DHT22;49973;52.084;5.412;2023-03-01T15:23:49;7.00;99.90
61912;DHT22;49973;52.084;5.412;2023-03-01T15:26:24;7.00;99.90
61912;DHT22;49973;52.084;5.412;2023-03-01T15:28:57;7.00;99.90
61912;DHT22;49973;52.084;5.412;2023-03-01T15:31:27;7.00;99.90
61912;DHT22;49973;52.084;5.412;2023-03-01T15:34:20;7.00;99.90
61912;DHT22;49973;52.084;5.412;2023-03-01T15:36:51;7.00;99.90
61912;DHT22;49973;52.084;5.412;2023-03-01T15:39:38;6.90;99.90
61912;DHT22;49973;52.084;5.412;2023-03-01T15:42:12;6.90;99.90
61912;DHT22;49973;52.084;5.412;2023-03-01T15:44:43;6.90;99.90
61912;DHT22;49973;52.084;5.412;2023-03-01T15:47:28;6.90;99.90
61912;DHT22;49973;52.084;5.412;2023-03-01T15:49:58;6.90;99.90
61912;DHT22;49973;52.084;5.412;2023-03-01T15:52:29;6.90;99.90
61912;DHT22;49973;52.084;5.412;2023-03-01T15:55:04;6.80;99.90
61912;DHT22;49973;52.084;5.412;2023-03-01T15:57:35;6.80;99.90
61912;DHT22;49973;52.084;5.412;2023-03-01T16:00:05;6.80;99.90
61912;DHT22;49973;52.084;5.412;2023-03-01T16:02:38;6.70;99.90
61912;DHT22;49973;52.084;5.412;2023-03-01T16:05:16;6.70;99.90
61912;DHT22;49973;52.084;5.412;2023-03-01T16:07:46;6.60;99.90
61912;DHT22;49973;52.084;5.412;2023-03-01T16:10:15;6.70;99.90
61912;DHT22;49973;52.084;5.412;2023-03-01T16:12:46;6.60;99.90
61912;DHT22;49973;52.084;5.412;2023-03-01T16:15:18;6.70;99.90
61912;DHT22;49973;52.084;5.412;2023-03-01T16:17:47;6.60;99.90
61912;DHT22;49973;52.084;5.412;2023-03-01T16:20:21;6.50;99.90
61912;DHT22;49973;52.084;5.412;2023-03-01T16:22:58;6.50;99.90